Latest Weather Observations for Warracknabeal Airport

IDV60801

Issued at 10:02 pm EST Thursday 22 June 2017 (issued every 30 minutes, with the page automatically refreshed every 10 minutes)

About weather observations | Map of weather stations | Latest weather observations for VIC | Other Formats
Station Details ID: 078018 Name: WARRACKNABEAL AIRPORT Lat: -36.32 Lon: 142.42 Height: 118.3 m
Data from the previous 72 hours. | See also: Recent months for locations in Victoria
Date/Time
EST
Temp
°C
App
Temp
°C
Dew
Point
°C
Rel
Hum
%
Delta-T
°C
Wind Press
QNH
hPa
Press
MSL
hPa
Rain since
9am
mm
Dir  Spd
km/h
Gust
km/h
Spd
kts
Gust
kts
22/10:00pm 5.6 2.1 5.5 99 0.0 NNE 13 15 7 8 1023.1 1023.3 0.0
22/09:30pm 5.6 2.0 5.2 97 0.2 NNE 13 13 7 7 1023.2 1023.4 0.0
22/09:00pm 5.7 2.1 5.1 96 0.3 NNE 13 15 7 8 1023.2 1023.4 0.0
22/08:30pm 5.5 1.9 4.8 95 0.3 NNE 13 15 7 8 1023.3 1023.5 0.0
22/08:00pm 6.1 2.6 5.4 95 0.3 NNE 13 15 7 8 1023.5 1023.7 0.0
22/07:30pm 6.3 3.1 4.9 91 0.6 NNE 11 13 6 7 1023.7 1024.0 0.0
22/07:00pm 7.0 3.5 5.5 90 0.7 NNE 13 15 7 8 1023.4 1023.6 0.0
22/06:30pm 8.1 5.1 6.2 88 0.9 NNE 11 13 6 7 1023.4 1023.6 0.0
22/06:00pm 8.5 5.5 5.8 83 1.2 NNE 11 13 6 7 1023.3 1023.5 0.0
22/05:30pm 10.1 6.8 6.3 77 1.8 NNE 13 15 7 8 1023.3 1023.5 0.0
22/05:00pm 13.7 10.7 7.7 67 3.0 N 13 19 7 10 1023.5 1023.7 0.0
22/04:30pm 14.8 12.2 7.8 63 3.5 WNW 11 15 6 8 1023.5 1023.7 0.0
22/04:00pm 15.2 12.2 7.5 60 3.8 N 13 17 7 9 1023.7 1024.0 0.0
22/03:30pm 15.3 12.0 8.1 62 3.6 N 15 20 8 11 1023.9 1024.2 0.0
22/03:00pm 15.6 13.1 8.4 62 3.6 N 11 17 6 9 1024.2 1024.5 0.0
22/02:30pm 15.5 12.6 8.3 62 3.7 NNW 13 19 7 10 1024.6 1024.9 0.0
22/02:00pm 15.5 13.0 8.3 62 3.6 NNW 11 17 6 9 1025.0 1025.3 0.0
22/01:30pm 14.9 12.8 8.4 65 3.3 NNW 9 17 5 9 1025.6 1025.9 0.0
22/01:00pm 13.6 10.9 8.9 73 2.4 N 13 20 7 11 1026.3 1026.5 0.0
22/12:30pm 13.4 10.8 9.5 77 2.0 N 13 20 7 11 1026.7 1026.9 0.0
22/12:00pm 12.7 9.1 9.7 82 1.5 N 19 24 10 13 1027.4 1027.6 0.0
22/11:30am 12.8 9.8 9.4 80 1.7 N 15 20 8 11 1027.9 1028.1 0.0
22/11:00am 11.9 8.0 9.3 84 1.3 N 20 22 11 12 1028.1 1028.3 0.0
22/10:30am 10.4 7.4 9.3 93 0.6 N 15 19 8 10 1028.3 1028.5 0.0
22/10:00am 9.2 5.6 8.3 94 0.4 NW 17 20 9 11 1028.2 1028.4 0.0
22/09:30am 8.7 5.5 8.4 98 0.1 N 15 19 8 10 1027.9 1028.1 0.0
22/09:00am 8.3 4.7 8.2 99 0.0 NNE 17 20 9 11 1027.8 1028.0 0.0
22/08:30am 7.8 4.8 7.7 99 0.0 NNE 13 15 7 8 1028.0 1028.2 0.0
22/08:00am 7.3 4.6 7.2 99 0.0 NE 11 13 6 7 1027.9 1028.1 0.0
22/07:30am 7.4 4.3 7.3 99 0.0 NE 13 15 7 8 1027.6 1027.8 0.0
22/07:00am 7.5 4.8 7.4 99 0.0 NE 11 15 6 8 1027.7 1027.9 0.0
22/06:30am 7.7 5.1 7.6 99 0.0 NE 11 13 6 7 1027.5 1027.7 0.0
22/06:00am 7.8 5.6 7.7 99 0.0 NE 9 11 5 6 1027.3 1027.5 0.0
22/05:30am 7.9 5.3 7.8 99 0.0 NE 11 15 6 8 1027.2 1027.4 0.0
22/05:00am 7.9 5.3 7.8 99 0.0 NE 11 15 6 8 1027.0 1027.2 0.0
22/04:30am 8.1 4.8 8.0 99 0.0 ENE 15 20 8 11 1027.0 1027.2 0.0
22/04:00am 7.8 5.9 7.7 99 0.0 E 7 11 4 6 1027.2 1027.4 0.0
22/03:30am 6.7 4.6 6.6 99 0.0 E 7 13 4 7 1027.3 1027.5 0.0
22/03:00am 6.8 4.7 6.7 99 0.0 SE 7 9 4 5 1027.4 1027.6 0.0
22/02:30am 5.7 2.6 5.4 98 0.1 SE 11 11 6 6 1027.3 1027.5 0.0
22/02:00am 6.8 4.3 6.5 98 0.1 SE 9 9 5 5 1027.3 1027.5 0.0
22/01:30am 7.7 5.3 7.1 96 0.3 SE 9 9 5 5 1027.2 1027.4 0.0
22/01:00am 8.6 6.4 7.8 95 0.4 SE 9 11 5 6 1027.3 1027.5 0.0
22/12:30am 9.0 6.4 7.9 93 0.5 SE 11 13 6 7 1027.8 1028.0 0.0
22/12:00am 9.6 7.1 8.4 92 0.6 SE 11 13 6 7 1028.0 1028.2 0.0
 
Date/Time
EST
Temp
°C
App
Temp
°C
Dew
Point
°C
Rel
Hum
%
Delta-T
°C
Wind Press
QNH
hPa
Press
MSL
hPa
Rain since
9am
mm
Dir  Spd
km/h
Gust
km/h
Spd
kts
Gust
kts
21/11:30pm 9.6 7.9 8.5 93 0.5 SE 7 11 4 6 1028.0 1028.2 0.0
21/11:00pm 9.0 6.8 7.9 93 0.5 SE 9 11 5 6 1028.3 1028.5 0.0
21/10:30pm 9.5 7.4 8.1 91 0.7 SE 9 11 5 6 1028.4 1028.6 0.0
21/10:00pm 9.4 7.3 8.2 92 0.6 W 9 11 5 6 1028.4 1028.6 0.0
21/09:30pm 10.1 8.1 8.7 91 0.7 W 9 13 5 7 1028.4 1028.6 0.0
21/09:00pm 9.8 7.7 8.4 91 0.7 W 9 11 5 6 1028.4 1028.6 0.0
21/08:30pm 9.7 7.7 8.5 92 0.6 W 9 9 5 5 1028.5 1028.7 0.0
21/08:00pm 10.0 8.5 9.2 95 0.4 W 7 9 4 5 1028.3 1028.5 0.0
21/07:30pm 10.3 8.9 9.5 95 0.4 W 7 9 4 5 1028.4 1028.6 0.0
21/07:00pm 10.7 8.9 9.5 92 0.6 W 9 11 5 6 1028.3 1028.5 0.0
21/06:30pm 11.3 9.6 9.9 91 0.7 W 9 11 5 6 1028.2 1028.4 0.0
21/06:00pm 11.9 9.9 10.0 88 1.0 WNW 11 15 6 8 1027.9 1028.1 0.0
21/05:30pm 12.9 11.6 10.1 83 1.5 NW 7 9 4 5 1027.5 1027.7 0.0
21/05:00pm 13.9 12.8 10.1 78 2.0 NW 6 9 3 5 1027.3 1027.5 0.0
21/04:30pm 14.7 13.2 10.7 77 2.1 NW 9 13 5 7 1027.5 1027.7 0.0
21/04:00pm 14.7 13.2 10.7 77 2.1 NW 9 11 5 6 1027.6 1027.8 0.0
21/03:30pm 14.6 13.6 10.2 75 2.3 NW 6 9 3 5 1027.5 1027.7 0.0
21/03:00pm 15.4 14.2 10.4 72 2.6 S 7 13 4 7 1027.4 1027.6 0.0
21/02:30pm 14.8 14.3 10.8 77 2.1 S 4 7 2 4 1027.3 1027.5 0.0
21/02:00pm 13.4 12.5 10.8 84 1.4 S 6 9 3 5 1027.5 1027.7 0.0
21/01:30pm 11.3 10.2 10.5 95 0.4 S 7 11 4 6 1028.0 1028.2 0.0
21/01:00pm 10.8 10.3 10.8 100 0.0 S 4 9 2 5 1028.3 1028.5 0.0
21/12:30pm 10.4 10.2 10.4 100 0.0 S 2 6 1 3 1028.7 1028.9 0.0
21/12:00pm 10.2 9.2 10.2 100 0.0 S 6 11 3 6 1028.9 1029.1 0.0
21/11:30am 10.2 8.6 10.2 100 0.0 S 9 11 5 6 1029.1 1029.3 0.0
21/11:00am 10.2 8.2 10.2 100 0.0 S 11 13 6 7 1029.0 1029.2 0.0
21/10:30am 9.7 8.0 9.7 100 0.0 S 9 13 5 7 1029.1 1029.3 0.0
21/10:00am 9.0 7.6 9.0 100 0.0 S 6 9 3 5 1029.0 1029.2 0.0
21/09:30am 8.7 6.3 8.7 100 0.0 S 11 15 6 8 1028.8 1029.0 0.0
21/09:00am 8.5 6.8 8.5 100 0.0 NW 7 11 4 6 1028.9 1029.1 0.2
21/08:30am 7.9 7.4 7.8 99 0.0 CALM 0 6 0 3 1028.7 1028.9 0.2
21/08:00am 7.4 6.8 7.3 99 0.0 CALM 0 0 0 0 1028.5 1028.7 0.0
21/07:30am 7.2 5.4 7.1 99 0.0 NW 6 7 3 4 1028.3 1028.5 0.0
21/07:00am 7.2 4.8 7.1 99 0.0 NW 9 11 5 6 1027.9 1028.1 0.0
21/06:30am 6.2 3.2 6.1 99 0.0 NW 11 13 6 7 1027.6 1027.8 0.0
21/06:00am 6.4 4.2 6.3 99 0.0 NW 7 9 4 5 1027.1 1027.3 0.0
21/05:30am 4.2 1.6 4.1 99 0.0 NW 7 9 4 5 1026.8 1027.0 0.0
21/05:00am 3.8 0.7 3.7 99 0.0 NW 9 11 5 6 1026.6 1026.8 0.0
21/04:30am 3.9 0.8 3.6 98 0.1 NW 9 11 5 6 1026.7 1026.9 0.0
21/04:00am 5.5 2.8 5.4 99 0.0 NW 9 11 5 6 1026.8 1027.0 0.0
21/03:30am 4.8 2.3 4.5 98 0.1 NW 7 9 4 5 1026.6 1026.8 0.0
21/03:00am 5.0 2.6 4.4 96 0.3 NW 6 7 3 4 1026.6 1026.8 0.0
21/02:30am 5.9 2.8 5.5 97 0.2 NW 11 13 6 7 1026.4 1026.6 0.0
21/02:00am 5.3 2.4 4.9 97 0.2 NW 9 11 5 6 1026.4 1026.6 0.0
21/01:30am 5.7 3.3 5.1 96 0.3 NW 7 7 4 4 1026.4 1026.6 0.0
21/01:00am 5.7 3.2 4.7 93 0.4 NW 7 11 4 6 1026.6 1026.8 0.0
21/12:30am 6.2 3.4 5.0 92 0.5 NW 9 11 5 6 1026.5 1026.7 0.0
21/12:00am 6.7 3.9 5.2 90 0.7 NW 9 11 5 6 1026.7 1026.9 0.0
 
Date/Time
EST
Temp
°C
App
Temp
°C
Dew
Point
°C
Rel
Hum
%
Delta-T
°C
Wind Press
QNH
hPa
Press
MSL
hPa
Rain since
9am
mm
Dir  Spd
km/h
Gust
km/h
Spd
kts
Gust
kts
20/11:30pm 7.0 3.9 5.5 90 0.7 NW 11 13 6 7 1026.6 1026.8 0.0
20/11:00pm 7.3 4.2 5.6 89 0.8 NW 11 13 6 7 1026.6 1026.8 0.0
20/10:30pm 7.9 4.6 6.4 90 0.7 NW 13 15 7 8 1026.5 1026.7 0.0
20/10:00pm 5.9 2.7 4.9 93 0.4 NW 11 13 6 7 1026.6 1026.8 0.0
20/09:30pm 6.0 3.1 4.8 92 0.5 NW 9 11 5 6 1026.7 1026.9 0.0
20/09:00pm 6.2 3.4 5.0 92 0.5 NW 9 11 5 6 1026.7 1026.9 0.0
20/08:30pm 6.4 3.5 4.9 90 0.7 NW 9 11 5 6 1026.7 1026.9 0.0
20/08:00pm 7.2 4.4 5.3 88 0.8 NW 9 11 5 6 1026.7 1026.9 0.0
20/07:30pm 7.6 4.9 5.4 86 1.0 NW 9 11 5 6 1026.7 1026.9 0.0
20/07:00pm 8.4 5.8 6.2 86 1.0 NW 9 9 5 5 1026.6 1026.8 0.0
20/06:30pm 8.7 6.0 5.8 82 1.3 NW 9 11 5 6 1026.4 1026.6 0.0
20/06:00pm 10.6 8.1 6.4 75 2.0 NW 9 11 5 6 1026.1 1026.3 0.0
20/05:30pm 12.5 10.2 7.4 71 2.5 NW 9 9 5 5 1026.1 1026.3 0.0
20/05:00pm 14.0 11.0 7.5 65 3.2 NW 13 19 7 10 1025.9 1026.1 0.0
20/04:30pm 15.6 11.8 7.6 59 4.0 NW 17 22 9 12 1025.6 1025.9 0.0
20/04:00pm 16.0 11.6 7.5 57 4.2 NW 20 26 11 14 1025.7 1026.0 0.0
20/03:30pm 16.4 12.0 7.6 56 4.4 NW 20 26 11 14 1025.9 1026.1 0.0
20/03:00pm 16.3 12.2 8.0 58 4.2 NW 19 30 10 16 1025.7 1026.0 0.0
20/02:30pm 16.5 12.2 8.0 57 4.3 NW 20 26 11 14 1025.7 1026.0 0.0
20/02:00pm 15.6 10.9 7.6 59 4.0 NW 22 28 12 15 1025.9 1026.1 0.0
20/01:30pm 15.6 11.3 7.9 60 3.9 NNW 20 28 11 15 1026.4 1026.6 0.0
20/01:00pm 15.4 10.8 8.2 62 3.6 NNW 22 32 12 17 1026.7 1026.9 0.0
20/12:30pm 15.0 10.1 8.3 64 3.4 NNW 24 33 13 18 1027.3 1027.5 0.0
20/12:00pm 14.2 9.2 8.2 67 3.0 NNW 24 32 13 17 1027.8 1028.0 0.0
20/11:30am 13.7 9.4 7.9 68 2.9 NNW 20 26 11 14 1028.3 1028.5 0.0
20/11:00am 12.7 8.6 7.8 72 2.4 N 19 22 10 12 1028.5 1028.7 0.0
20/10:30am 11.3 6.6 7.6 78 1.8 N 22 28 12 15 1028.5 1028.7 0.0
20/10:00am 10.2 6.0 7.6 84 1.2 N 19 24 10 13 1028.7 1028.9 0.0
20/09:30am 8.5 5.0 7.4 93 0.5 N 15 17 8 9 1028.6 1028.8 0.0
20/09:00am 6.6 4.1 6.5 99 0.0 N 9 13 5 7 1028.6 1028.8 0.0
20/08:30am 4.5 1.9 4.4 99 0.0 N 7 9 4 5 1028.7 1028.9 0.0
20/08:00am 3.1 0.5 3.0 99 0.0 N 6 7 3 4 1028.7 1028.9 0.0
20/07:30am 2.9 -0.7 2.8 99 0.0 N 11 13 6 7 1028.5 1028.7 0.0
20/07:00am 3.2 0.0 3.1 99 0.0 N 9 9 5 5 1028.3 1028.5 0.0
20/06:30am 2.9 -0.3 2.8 99 0.0 N 9 11 5 6 1027.9 1028.1 0.0
20/06:00am 3.6 0.5 3.5 99 0.0 N 9 11 5 6 1027.6 1027.8 0.0
20/05:30am 3.2 0.0 3.1 99 0.0 N 9 11 5 6 1027.4 1027.6 0.0
20/05:00am 3.7 0.2 3.6 99 0.0 N 11 13 6 7 1027.5 1027.7 0.0
20/04:30am 3.7 0.6 3.6 99 0.0 N 9 9 5 5 1027.9 1028.1 0.0
20/04:00am 3.6 0.1 3.3 98 0.1 N 11 13 6 7 1027.9 1028.1 0.0
20/03:30am 4.1 1.0 3.8 98 0.1 N 9 11 5 6 1028.1 1028.3 0.0
20/03:00am 3.8 0.2 3.2 96 0.2 N 11 11 6 6 1028.4 1028.6 0.0
20/02:30am 4.9 1.6 4.3 96 0.3 N 11 11 6 6 1028.7 1028.9 0.0
20/02:00am 4.9 1.9 4.0 94 0.4 N 9 11 5 6 1028.9 1029.1 0.0
20/01:30am 5.5 2.6 4.5 93 0.4 N 9 11 5 6 1028.8 1029.0 0.0
20/01:00am 5.1 1.3 3.8 91 0.5 N 13 13 7 7 1029.0 1029.2 0.0
20/12:30am 6.5 3.6 4.8 89 0.7 N 9 11 5 6 1029.5 1029.7 0.0
20/12:00am 7.5 4.8 5.8 89 0.8 N 9 11 5 6 1029.7 1029.9 0.0
 
Date/Time
EST
Temp
°C
App
Temp
°C
Dew
Point
°C
Rel
Hum
%
Delta-T
°C
Wind Press
QNH
hPa
Press
MSL
hPa
Rain since
9am
mm
Dir  Spd
km/h
Gust
km/h
Spd
kts
Gust
kts
19/11:30pm 8.4 5.8 6.0 85 1.1 N 9 9 5 5 1029.8 1030.0 0.0
19/11:00pm 8.9 6.3 6.2 83 1.2 N 9 11 5 6 1030.0 1030.2 0.0
19/10:30pm 9.8 7.6 6.3 79 1.6 N 7 9 4 5 1030.0 1030.2 0.0

Other Formats:

Comma delimited format used in spreadsheet applications
http://www.bom.gov.au/fwo/IDV60801/IDV60801.94920.axf

JavaScript Object Notation format (JSON) in row-major order
http://www.bom.gov.au/fwo/IDV60801/IDV60801.94920.json